Time;durP1;ratioP1;P1;durP2;ratioP2;P2;SDS_P1;SDS_P2;PMS_P1;PMS_P2;Temp;Humidity;BMP_temperature;BMP_pressure;BME280_temperature;BME280_humidity;BME280_pressure;Samples;Min_cycle;Max_cycle;Signal;HPM_P1;HPM_P2
2021/01/20 00:02:20;;;;;;;83.03;33.00;;;115.70;2176.00;;;;;;5090752;28;20024;-67
2021/01/20 00:04:46;;;;;;;96.47;37.95;;;115.80;2176.00;;;;;;5091470;28;20028;-64
2021/01/20 00:07:12;;;;;;;96.72;40.55;;;115.80;2176.00;;;;;;5090980;28;20495;-63
2021/01/20 00:09:39;;;;;;;90.82;39.63;;;115.90;2176.00;;;;;;5091372;28;20065;-64
2021/01/20 00:12:05;;;;;;;103.40;43.03;;;115.90;2176.00;;;;;;5090813;28;20028;-65
2021/01/20 00:14:31;;;;;;;103.75;40.75;;;115.90;2176.00;;;;;;5090933;28;20091;-64
2021/01/20 00:16:57;;;;;;;83.72;34.85;;;115.90;2176.00;;;;;;5090834;28;20020;-66
2021/01/20 00:19:22;;;;;;;98.95;41.28;;;115.90;2176.00;;;;;;5090976;28;20059;-63
2021/01/20 00:21:48;;;;;;;100.47;42.03;;;115.90;2176.00;;;;;;5090704;28;20098;-63
2021/01/20 00:24:14;;;;;;;83.00;38.58;;;115.90;2176.00;;;;;;5090168;28;20067;-64
2021/01/20 00:26:40;;;;;;;88.25;37.85;;;115.90;2176.00;;;;;;5091551;28;20056;-64
2021/01/20 00:29:05;;;;;;;81.65;34.67;;;115.90;2176.00;;;;;;5090018;28;20032;-64
2021/01/20 00:31:31;;;;;;;86.97;36.60;;;115.90;2176.00;;;;;;5090573;28;20020;-64
2021/01/20 00:33:57;;;;;;;84.72;37.35;;;116.00;2176.00;;;;;;5091189;28;20020;-64
2021/01/20 00:36:22;;;;;;;99.97;40.92;;;116.00;2176.00;;;;;;5066176;28;690291;-64
2021/01/20 00:38:48;;;;;;;99.63;40.22;;;116.00;2176.00;;;;;;5091838;28;20445;-64
2021/01/20 00:41:13;;;;;;;106.93;41.60;;;116.00;2176.00;;;;;;5091465;28;20024;-64
2021/01/20 00:43:39;;;;;;;112.75;41.83;;;116.00;2176.00;;;;;;5091874;28;20028;-64
2021/01/20 00:46:05;;;;;;;105.53;42.95;;;116.00;2176.00;;;;;;5090957;28;20400;-64
2021/01/20 00:48:30;;;;;;;100.15;40.90;;;116.00;2176.00;;;;;;5091784;28;20024;-68
2021/01/20 00:50:56;;;;;;;89.28;35.03;;;115.90;2176.00;;;;;;5091293;28;20012;-64
2021/01/20 00:53:22;;;;;;;90.50;37.45;;;115.90;2176.00;;;;;;5091667;28;20020;-64
2021/01/20 00:55:48;;;;;;;91.32;37.33;;;115.90;2176.00;;;;;;5091215;28;20469;-69
2021/01/20 00:58:14;;;;;;;86.35;35.30;;;115.80;2176.00;;;;;;5091825;28;20060;-68
2021/01/20 01:00:39;;;;;;;84.07;34.45;;;115.80;2176.00;;;;;;5091709;28;20017;-64
2021/01/20 01:03:05;;;;;;;73.72;31.45;;;115.70;2176.00;;;;;;5091810;28;20499;-65
2021/01/20 01:05:31;;;;;;;73.75;31.35;;;115.70;2176.00;;;;;;5077017;28;20460;-65
2021/01/20 01:07:56;;;;;;;84.40;35.42;;;115.60;2176.00;;;;;;5096236;28;20494;-64
2021/01/20 01:10:22;;;;;;;84.10;33.22;;;115.60;2176.00;;;;;;5095820;28;20498;-65
2021/01/20 01:12:48;;;;;;;86.18;35.15;;;115.60;2176.00;;;;;;5095908;28;20486;-64
2021/01/20 01:15:13;;;;;;;82.63;32.95;;;115.50;2176.00;;;;;;5095779;28;20024;-64
2021/01/20 01:17:39;;;;;;;73.82;32.15;;;115.50;2176.00;;;;;;5095775;28;20024;-66
2021/01/20 01:20:05;;;;;;;62.67;28.70;;;115.50;2176.00;;;;;;5095612;28;20026;-65
2021/01/20 01:22:31;;;;;;;62.63;25.25;;;115.40;2176.00;;;;;;5095675;28;20093;-64
2021/01/20 01:24:56;;;;;;;74.63;31.88;;;115.30;2176.00;;;;;;5095535;28;20049;-65
2021/01/20 01:27:22;;;;;;;64.00;27.90;;;115.20;2176.00;;;;;;5095593;28;20505;-66
2021/01/20 01:29:47;;;;;;;65.20;27.17;;;115.20;2176.00;;;;;;5095852;28;20377;-64
2021/01/20 01:32:13;;;;;;;69.10;30.70;;;115.20;2176.00;;;;;;5095461;28;20029;-65
2021/01/20 01:34:39;;;;;;;71.95;29.45;;;115.20;2176.00;;;;;;5095568;28;20028;-64
2021/01/20 01:37:04;;;;;;;63.70;29.33;;;115.20;2176.00;;;;;;5095522;28;20535;-65
2021/01/20 01:39:30;;;;;;;70.55;30.83;;;90.50;2176.00;;;;;;5095788;28;20050;-65
2021/01/20 01:41:56;;;;;;;78.00;33.40;;;115.20;2176.00;;;;;;5093916;28;20406;-65
2021/01/20 01:44:21;;;;;;;79.00;31.17;;;115.20;2176.00;;;;;;5095681;28;20074;-64
2021/01/20 01:46:47;;;;;;;87.60;35.78;;;115.20;2176.00;;;;;;5095115;28;20024;-64
2021/01/20 01:49:13;;;;;;;76.22;32.60;;;115.20;2176.00;;;;;;5094973;28;20081;-65
2021/01/20 01:51:39;;;;;;;68.38;30.52;;;115.20;2176.00;;;;;;5095382;28;20024;-65
2021/01/20 01:54:04;;;;;;;68.00;29.42;;;115.30;2176.00;;;;;;5095277;28;20016;-65
2021/01/20 01:56:30;;;;;;;57.38;27.40;;;115.30;2176.00;;;;;;5094974;28;20073;-65
2021/01/20 01:58:56;;;;;;;65.72;28.60;;;115.30;2176.00;;;;;;5095114;28;20087;-64
2021/01/20 02:01:21;;;;;;;71.38;32.10;;;115.30;2176.00;;;;;;5076758;28;20120;-65
2021/01/20 02:03:50;;;;;;;76.20;33.15;;;115.30;2176.00;;;;;;5076473;28;20035;-65
2021/01/20 02:06:16;;;;;;;73.10;31.88;;;115.30;2176.00;;;;;;5094356;28;20099;-65
2021/01/20 02:08:43;;;;;;;60.78;26.73;;;115.40;2176.00;;;;;;5094065;28;20104;-65
2021/01/20 02:11:21;;;;;;;66.82;28.40;;;115.40;2176.00;;;;;;5093611;28;20020;-64
2021/01/20 02:14:01;;;;;;;60.13;27.52;;;115.40;2176.00;;;;;;5089325;28;20066;-65
2021/01/20 02:16:27;;;;;;;68.43;29.77;;;115.40;2176.00;;;;;;5094350;28;20102;-65
2021/01/20 02:18:53;;;;;;;74.80;33.72;;;115.40;2176.00;;;;;;5076672;28;20035;-65
2021/01/20 02:21:32;;;;;;;71.90;32.03;;;115.30;2176.00;;;;;;5076726;28;20540;-64
2021/01/20 02:23:58;;;;;;;69.63;30.60;;;115.30;2176.00;;;;;;5063929;28;20028;-64
2021/01/20 02:26:38;;;;;;;63.28;29.50;;;115.30;2176.00;;;;;;5076377;28;20032;-65
2021/01/20 02:29:25;;;;;;;62.15;27.65;;;115.40;2176.00;;;;;;5059953;28;20016;-65
2021/01/20 02:31:51;;;;;;;58.00;27.77;;;115.40;2176.00;;;;;;5094667;28;20016;-65
2021/01/20 02:34:19;;;;;;;70.93;29.48;;;115.40;2176.00;;;;;;5076281;28;20380;-65
2021/01/20 02:36:44;;;;;;;67.18;29.08;;;115.40;2176.00;;;;;;5093962;28;20127;-64
2021/01/20 02:39:10;;;;;;;69.20;29.95;;;115.40;2176.00;;;;;;5059119;28;20540;-66
2021/01/20 02:41:36;;;;;;;65.97;28.98;;;115.40;2176.00;;;;;;5092757;28;20439;-65
2021/01/20 02:44:02;;;;;;;64.20;30.73;;;115.50;2176.00;;;;;;5093909;28;20064;-66
2021/01/20 02:46:28;;;;;;;74.53;32.65;;;115.50;2176.00;;;;;;5094104;28;20024;-64
2021/01/20 02:48:54;;;;;;;73.22;30.23;;;115.60;2176.00;;;;;;5093692;28;20030;-65
2021/01/20 02:51:43;;;;;;;68.90;29.95;;;115.60;2176.00;;;;;;5076280;28;20020;-64
2021/01/20 02:54:10;;;;;;;63.33;28.17;;;115.60;2176.00;;;;;;5077696;28;20028;-65
2021/01/20 02:56:36;;;;;;;63.10;27.48;;;115.70;2176.00;;;;;;5075952;28;20265;-65
2021/01/20 02:59:02;;;;;;;66.57;28.67;;;115.80;2176.00;;;;;;5059309;28;20054;-64
2021/01/20 03:01:29;;;;;;;65.43;27.38;;;115.80;2176.00;;;;;;5080531;28;20027;-65
2021/01/20 03:03:56;;;;;;;55.33;27.42;;;115.90;2176.00;;;;;;5075690;28;20480;-65
2021/01/20 03:06:22;;;;;;;62.78;27.95;;;115.90;2176.00;;;;;;5075755;28;20036;-64
2021/01/20 03:08:48;;;;;;;64.57;29.52;;;115.90;2176.00;;;;;;5075885;28;20030;-65
2021/01/20 03:11:13;;;;;;;63.45;27.48;;;115.90;2176.00;;;;;;5075382;28;20039;-64
2021/01/20 03:13:40;;;;;;;68.57;28.88;;;115.90;2176.00;;;;;;5093979;28;20024;-65
2021/01/20 03:16:05;;;;;;;60.97;26.77;;;115.90;2176.00;;;;;;5075431;28;20081;-65
2021/01/20 03:18:31;;;;;;;59.35;25.92;;;115.90;2176.00;;;;;;5093771;28;20020;-64
2021/01/20 03:20:59;;;;;;;61.65;26.48;;;115.90;2176.00;;;;;;5093624;28;20173;-64
2021/01/20 03:23:24;;;;;;;63.25;28.10;;;115.90;2176.00;;;;;;5093736;28;20032;-64
2021/01/20 03:25:50;;;;;;;64.93;29.00;;;115.90;2176.00;;;;;;5092436;28;20106;-65
2021/01/20 03:28:16;;;;;;;59.63;25.92;;;115.90;2176.00;;;;;;5092412;28;20020;-64
2021/01/20 03:30:41;;;;;;;63.45;27.85;;;115.90;2176.00;;;;;;5093495;28;20554;-65
2021/01/20 03:33:07;;;;;;;61.25;27.48;;;116.00;2176.00;;;;;;5093042;28;20045;-65
2021/01/20 03:35:34;;;;;;;59.58;26.25;;;115.90;2176.00;;;;;;5093639;28;20396;-65
2021/01/20 03:38:01;;;;;;;55.08;24.08;;;115.90;2176.00;;;;;;5093015;28;20048;-65
2021/01/20 03:40:27;;;;;;;52.03;24.70;;;115.80;2176.00;;;;;;5093246;28;20081;-64
2021/01/20 03:42:53;;;;;;;54.13;24.35;;;115.80;2176.00;;;;;;5093192;28;20028;-66
2021/01/20 03:45:18;;;;;;;58.47;26.17;;;115.80;2176.00;;;;;;5092993;28;20019;-65
2021/01/20 03:47:44;;;;;;;59.05;25.65;;;115.70;2176.00;;;;;;5093104;28;20534;-65
2021/01/20 03:50:10;;;;;;;60.85;25.42;;;115.70;2176.00;;;;;;5092857;28;20435;-64
2021/01/20 03:52:36;;;;;;;53.85;24.35;;;115.70;2176.00;;;;;;5093230;28;20044;-65
2021/01/20 03:55:01;;;;;;;61.83;26.25;;;115.70;2176.00;;;;;;5093282;28;20434;-65
2021/01/20 03:57:27;;;;;;;53.15;24.45;;;115.70;2176.00;;;;;;5092751;28;20115;-65
2021/01/20 03:59:53;;;;;;;51.47;22.75;;;115.70;2176.00;;;;;;5092917;28;20020;-64
2021/01/20 04:02:18;;;;;;;43.33;21.88;;;115.60;2176.00;;;;;;5092853;28;20028;-64
2021/01/20 04:04:44;;;;;;;46.47;21.40;;;115.60;2176.00;;;;;;5092652;28;20020;-64
2021/01/20 04:07:10;;;;;;;53.33;24.35;;;115.60;2176.00;;;;;;5092622;28;20032;-65
2021/01/20 04:09:35;;;;;;;49.90;23.48;;;115.60;2176.00;;;;;;5092854;28;20024;-68
2021/01/20 04:12:01;;;;;;;54.45;25.08;;;115.60;2176.00;;;;;;5092896;28;20493;-68
2021/01/20 04:14:27;;;;;;;52.05;23.45;;;115.50;2176.00;;;;;;5092726;28;20408;-68
2021/01/20 04:16:53;;;;;;;55.08;25.73;;;115.40;2176.00;;;;;;5092697;28;20049;-68
2021/01/20 04:19:18;;;;;;;56.03;25.13;;;115.40;2176.00;;;;;;5092482;28;20107;-69
2021/01/20 04:21:44;;;;;;;61.97;27.90;;;115.30;2176.00;;;;;;5092369;28;20042;-68
2021/01/20 04:24:10;;;;;;;56.88;27.10;;;115.30;2176.00;;;;;;5092450;28;20469;-68
2021/01/20 04:26:37;;;;;;;55.10;25.27;;;115.20;2176.00;;;;;;5092229;28;20024;-65
2021/01/20 04:29:02;;;;;;;56.10;25.88;;;115.20;2176.00;;;;;;5092320;28;20023;-66
2021/01/20 04:31:28;;;;;;;68.57;28.80;;;90.50;2176.00;;;;;;5092297;28;20479;-68
2021/01/20 04:33:54;;;;;;;59.22;24.65;;;90.40;2176.00;;;;;;5092475;28;20099;-69
2021/01/20 04:36:19;;;;;;;53.75;24.52;;;90.40;2176.00;;;;;;5092024;28;20487;-69
2021/01/20 04:38:45;;;;;;;59.05;27.25;;;90.40;2176.00;;;;;;5092082;28;20498;-66
2021/01/20 04:41:10;;;;;;;48.08;22.52;;;90.40;2176.00;;;;;;5092296;28;20030;-64
2021/01/20 04:43:36;;;;;;;64.97;26.73;;;90.40;2176.00;;;;;;5092204;28;20023;-65
2021/01/20 04:46:02;;;;;;;50.35;23.27;;;90.30;2176.00;;;;;;5092122;28;20380;-64
2021/01/20 04:48:33;;;;;;;53.70;22.52;;;90.30;2176.00;;;;;;5074232;28;20443;-64
2021/01/20 04:51:03;;;;;;;86.68;35.30;;;90.30;2176.00;;;;;;5074907;28;20044;-69
2021/01/20 04:53:30;;;;;;;75.65;31.10;;;90.20;2176.00;;;;;;5092236;28;20032;-64
2021/01/20 04:55:56;;;;;;;55.63;24.05;;;90.20;2176.00;;;;;;5074347;28;20057;-65
2021/01/20 04:58:22;;;;;;;57.38;27.27;;;90.20;2176.00;;;;;;5057383;28;20035;-65
2021/01/20 05:00:47;;;;;;;67.78;29.55;;;90.10;2176.00;;;;;;5091996;28;20103;-64
2021/01/20 05:03:13;;;;;;;58.28;27.70;;;90.00;2176.00;;;;;;5074311;28;20036;-68
2021/01/20 05:05:38;;;;;;;49.70;24.00;;;90.00;2176.00;;;;;;5092016;28;20028;-66
2021/01/20 05:08:04;;;;;;;51.80;24.50;;;90.00;2176.00;;;;;;5091649;28;20030;-64
2021/01/20 05:10:30;;;;;;;47.35;21.10;;;89.90;2176.00;;;;;;5092368;28;20373;-64
2021/01/20 05:12:56;;;;;;;77.55;34.83;;;89.80;2176.00;;;;;;5091701;28;20028;-65
2021/01/20 05:15:31;;;;;;;61.00;27.48;;;89.70;2176.00;;;;;;5091962;28;20020;-68
2021/01/20 05:18:04;;;;;;;56.67;27.50;;;89.70;2176.00;;;;;;5073764;28;20085;-64
2021/01/20 05:20:37;;;;;;;59.92;28.52;;;89.60;2201.60;;;;;;5092137;28;20032;-68
2021/01/20 05:23:03;;;;;;;58.10;30.05;;;64.90;2201.60;;;;;;5073429;28;20032;-68
2021/01/20 05:25:39;;;;;;;60.13;26.02;;;89.60;2201.60;;;;;;5091790;28;20073;-71
2021/01/20 05:28:37;;;;;;;51.40;24.50;;;89.60;2201.60;;;;;;5091669;28;20039;-71
2021/01/20 05:31:04;;;;;;;59.53;26.05;;;89.60;2201.60;;;;;;5036291;28;20042;-69
2021/01/20 05:33:35;;;;;;;66.20;28.20;;;89.60;2201.60;;;;;;5091599;28;20480;-65
2021/01/20 05:36:14;;;;;;;57.25;25.35;;;89.60;2201.60;;;;;;5091656;28;20031;-66
2021/01/20 05:38:43;;;;;;;59.22;28.38;;;64.90;2201.60;;;;;;5091400;28;20020;-65
2021/01/20 05:41:19;;;;;;;53.83;26.40;;;64.90;2201.60;;;;;;5091570;28;20016;-67
2021/01/20 05:43:45;;;;;;;62.00;27.13;;;64.90;2201.60;;;;;;5091670;28;20028;-65
2021/01/20 05:46:11;;;;;;;55.75;25.83;;;64.80;2201.60;;;;;;5091647;28;20101;-66
2021/01/20 05:48:47;;;;;;;56.80;26.85;;;64.70;2201.60;;;;;;5073404;28;20024;-65
2021/01/20 05:51:13;;;;;;;58.75;26.15;;;64.70;2201.60;;;;;;5093793;28;20082;-65
2021/01/20 05:53:48;;;;;;;54.80;25.42;;;64.60;2201.60;;;;;;5095204;28;20362;-74
2021/01/20 05:56:15;;;;;;;61.67;26.73;;;64.50;2201.60;;;;;;5077068;28;20027;-65
2021/01/20 05:58:41;;;;;;;59.47;27.23;;;64.50;2201.60;;;;;;5077267;28;20024;-64
2021/01/20 06:01:10;;;;;;;59.22;27.92;;;64.50;2201.60;;;;;;5094070;28;20032;-64
2021/01/20 06:03:36;;;;;;;57.33;26.48;;;64.40;2201.60;;;;;;5095329;28;20090;-64
2021/01/20 06:06:02;;;;;;;57.78;27.55;;;64.40;2201.60;;;;;;5094330;28;20469;-64
2021/01/20 06:08:33;;;;;;;55.17;26.67;;;64.30;2201.60;;;;;;5095285;28;20077;-64
2021/01/20 06:10:59;;;;;;;49.22;24.70;;;64.30;2201.60;;;;;;5077218;28;20491;-64
2021/01/20 06:13:25;;;;;;;52.40;26.20;;;64.20;2201.60;;;;;;5095113;28;20028;-64
2021/01/20 06:15:52;;;;;;;53.42;26.98;;;64.20;2201.60;;;;;;5095008;28;20077;-64
2021/01/20 06:18:17;;;;;;;60.88;28.17;;;64.10;2201.60;;;;;;5076556;28;20461;-64
2021/01/20 06:20:44;;;;;;;60.83;28.90;;;64.10;2201.60;;;;;;5076758;28;20042;-64
2021/01/20 06:23:10;;;;;;;60.03;28.45;;;64.10;2201.60;;;;;;5076458;28;20393;-65
2021/01/20 06:25:36;;;;;;;68.93;30.10;;;64.10;2201.60;;;;;;5064860;28;20028;-64
2021/01/20 06:28:06;;;;;;;77.63;37.10;;;64.00;2201.60;;;;;;5076348;28;20027;-64
2021/01/20 06:30:36;;;;;;;81.78;37.40;;;64.00;2201.60;;;;;;5064618;28;20028;-65
2021/01/20 06:33:08;;;;;;;77.05;36.67;;;64.00;2201.60;;;;;;5093879;28;20020;-64
2021/01/20 06:35:44;;;;;;;81.15;36.90;;;64.00;2201.60;;;;;;5058401;28;20044;-65
2021/01/20 06:38:28;;;;;;;120.40;52.22;;;39.30;2201.60;;;;;;5093100;28;20044;-65
2021/01/20 06:41:07;;;;;;;79.63;37.58;;;39.20;2201.60;;;;;;5093021;28;20036;-66
2021/01/20 06:43:35;;;;;;;76.32;35.10;;;39.20;2201.60;;;;;;5088618;28;20031;-67
2021/01/20 06:46:19;;;;;;;85.25;38.65;;;39.10;2201.60;;;;;;5090626;28;20020;-67
2021/01/20 06:48:53;;;;;;;80.03;39.55;;;39.10;2201.60;;;;;;5092870;28;20024;-67
2021/01/20 06:51:19;;;;;;;81.45;37.78;;;39.00;2201.60;;;;;;5091922;28;20028;-66
2021/01/20 06:54:10;;;;;;;87.35;40.92;;;38.90;2201.60;;;;;;5093287;28;20099;-66
2021/01/20 06:56:37;;;;;;;107.60;44.67;;;38.90;2201.60;;;;;;5091113;28;20020;-67
2021/01/20 06:59:22;;;;;;;120.53;50.00;;;38.90;2201.60;;;;;;5093637;28;20024;-66
2021/01/20 07:02:03;;;;;;;108.57;48.17;;;38.90;2201.60;;;;;;5088227;28;20373;-66
2021/01/20 07:04:40;;;;;;;94.68;42.40;;;38.80;2201.60;;;;;;5092705;28;20481;-66
2021/01/20 07:07:06;;;;;;;112.35;49.15;;;38.80;2201.60;;;;;;5092689;28;20111;-66
2021/01/20 07:09:50;;;;;;;94.82;41.00;;;38.70;2201.60;;;;;;5092924;28;20091;-66
2021/01/20 07:12:21;;;;;;;99.78;45.50;;;38.70;2201.60;;;;;;5093096;28;20040;-66
2021/01/20 07:14:48;;;;;;;110.15;49.83;;;38.50;2201.60;;;;;;5093372;28;20016;-64
2021/01/20 07:17:14;;;;;;;120.50;52.47;;;38.40;2201.60;;;;;;5087241;28;20024;-65
2021/01/20 07:19:40;;;;;;;122.95;55.03;;;13.70;2201.60;;;;;;5092802;28;20073;-65
2021/01/20 07:22:06;;;;;;;119.80;53.88;;;13.60;2201.60;;;;;;5092234;28;20110;-65
2021/01/20 07:24:32;;;;;;;126.47;55.80;;;13.50;2201.60;;;;;;5093129;28;20119;-66
2021/01/20 07:27:07;;;;;;;128.70;55.42;;;13.30;2201.60;;;;;;5092100;28;20103;-65
2021/01/20 07:29:32;;;;;;;97.93;45.88;;;13.10;2201.60;;;;;;5093049;28;20031;-66
2021/01/20 07:31:58;;;;;;;101.20;47.47;;;13.00;2201.60;;;;;;5092734;28;20027;-68
2021/01/20 07:34:37;;;;;;;107.10;49.22;;;12.90;2201.60;;;;;;5092020;28;20028;-65
2021/01/20 07:37:20;;;;;;;105.18;48.53;;;0.30;2176.00;;;;;;5095865;28;20067;-64
2021/01/20 07:39:46;;;;;;;94.43;45.38;;;0.70;2124.80;;;;;;5093384;28;20031;-65
2021/01/20 07:42:11;;;;;;;109.10;48.72;;;25.70;2073.60;;;;;;5092939;28;20074;-65
2021/01/20 07:44:47;;;;;;;107.78;51.05;;;25.80;2048.00;;;;;;5093299;28;20030;-64
2021/01/20 07:47:13;;;;;;;103.68;47.75;;;26.30;2022.40;;;;;;5093230;28;20039;-64
2021/01/20 07:49:38;;;;;;;108.85;46.72;;;51.30;2022.40;;;;;;5092988;28;20020;-64
2021/01/20 07:52:05;;;;;;;96.25;45.33;;;51.60;1971.20;;;;;;5074640;28;20489;-65
2021/01/20 07:54:49;;;;;;;65.18;33.05;;;51.80;1945.60;;;;;;5092899;28;20020;-68
2021/01/20 07:57:19;;;;;;;66.93;31.83;;;51.70;1945.60;;;;;;5092892;28;20111;-67
2021/01/20 07:59:45;;;;;;;57.15;28.55;;;52.00;1920.00;;;;;;5093023;28;20024;-65
2021/01/20 08:02:11;;;;;;;51.80;29.08;;;52.10;1894.40;;;;;;5092827;28;20509;-64
2021/01/20 08:04:38;;;;;;;45.97;26.80;;;77.00;1868.80;;;;;;5092798;28;20012;-64
2021/01/20 08:07:04;;;;;;;48.20;26.40;;;77.00;1868.80;;;;;;5092444;28;20373;-65
2021/01/20 08:09:43;;;;;;;53.13;27.15;;;76.90;1868.80;;;;;;5092300;28;20109;-65
2021/01/20 08:12:11;;;;;;;57.97;30.88;;;52.10;1868.80;;;;;;5091022;28;20020;-65
2021/01/20 08:14:38;;;;;;;49.80;25.90;;;51.80;1920.00;;;;;;5092142;28;20024;-65
2021/01/20 08:17:04;;;;;;;121.55;57.70;;;51.70;1920.00;;;;;;5073448;28;20047;-63
2021/01/20 08:19:34;;;;;;;68.05;35.58;;;51.90;1920.00;;;;;;5057456;28;20485;-65
2021/01/20 08:22:04;;;;;;;68.27;33.03;;;51.90;1920.00;;;;;;5057134;28;20103;-66
2021/01/20 08:24:30;;;;;;;73.60;34.80;;;52.00;1920.00;;;;;;5087604;28;20296;-65
2021/01/20 08:26:56;;;;;;;69.40;35.65;;;76.90;1868.80;;;;;;5092364;28;20024;-65
2021/01/20 08:29:22;;;;;;;52.03;27.73;;;77.00;1894.40;;;;;;5092940;28;20396;-65
2021/01/20 08:32:11;;;;;;;61.05;30.05;;;76.90;1868.80;;;;;;5088528;28;20027;-64
2021/01/20 08:34:40;;;;;;;63.83;31.25;;;52.10;1894.40;;;;;;5073974;28;20036;-64
2021/01/20 08:37:10;;;;;;;59.58;31.45;;;76.90;1894.40;;;;;;5091786;28;20134;-67
2021/01/20 08:39:50;;;;;;;69.07;36.90;;;77.20;1868.80;;;;;;5092452;28;20384;-65
2021/01/20 08:42:26;;;;;;;61.33;31.70;;;77.40;1843.20;;;;;;5078968;28;20024;-65
2021/01/20 08:45:14;;;;;;;60.10;29.98;;;77.50;1817.60;;;;;;5091861;28;20027;-65
2021/01/20 08:47:50;;;;;;;70.90;35.80;;;77.20;1843.20;;;;;;5081870;28;20078;-65
2021/01/20 08:50:20;;;;;;;52.75;30.10;;;77.30;1843.20;;;;;;5092191;28;20075;-65
2021/01/20 08:52:52;;;;;;;51.67;29.77;;;77.60;1817.60;;;;;;5092226;28;20027;-65
2021/01/20 08:55:24;;;;;;;52.15;28.98;;;77.60;1843.20;;;;;;5092254;28;20024;-64
2021/01/20 08:58:15;;;;;;;70.97;37.60;;;77.70;1817.60;;;;;;5091869;28;20107;-64
2021/01/20 09:00:41;;;;;;;61.65;34.40;;;77.50;1817.60;;;;;;5091975;28;20024;-65
2021/01/20 09:03:11;;;;;;;59.00;31.58;;;77.40;1843.20;;;;;;5092031;28;20024;-64
2021/01/20 09:05:37;;;;;;;62.53;33.37;;;77.70;1792.00;;;;;;5074013;28;20065;-64
2021/01/20 09:08:03;;;;;;;68.45;34.10;;;77.50;1843.20;;;;;;5091543;28;20299;-65
2021/01/20 09:10:28;;;;;;;67.18;35.53;;;77.40;1843.20;;;;;;5092379;28;20469;-65
2021/01/20 09:12:54;;;;;;;77.00;35.40;;;77.40;1843.20;;;;;;5091967;28;20419;-65
2021/01/20 09:15:19;;;;;;;72.82;37.20;;;77.50;1843.20;;;;;;5092113;28;20024;-65
2021/01/20 09:17:45;;;;;;;83.72;42.25;;;102.60;1792.00;;;;;;5073572;28;20039;-65
2021/01/20 09:20:11;;;;;;;70.85;38.08;;;102.70;1766.40;;;;;;5091154;28;20077;-64
2021/01/20 09:22:39;;;;;;;56.45;32.20;;;102.70;1766.40;;;;;;5090887;28;20024;-65
2021/01/20 09:25:05;;;;;;;57.40;32.50;;;102.70;1766.40;;;;;;5088982;28;20028;-66
2021/01/20 09:27:31;;;;;;;51.08;29.33;;;102.70;1766.40;;;;;;5095429;28;20045;-65
2021/01/20 09:29:56;;;;;;;69.07;36.40;;;103.30;1715.20;;;;;;5094889;28;20032;-64
2021/01/20 09:32:23;;;;;;;56.28;31.10;;;128.40;1689.60;;;;;;5092314;28;20476;-65
2021/01/20 09:34:48;;;;;;;65.80;34.60;;;153.80;1612.80;;;;;;5094332;28;20069;-64
2021/01/20 09:37:14;;;;;;;65.97;36.28;;;154.20;1587.20;;;;;;5094887;28;20076;-64
2021/01/20 09:39:40;;;;;;;66.97;37.22;;;154.50;1561.60;;;;;;5067877;28;20028;-64
2021/01/20 09:42:05;;;;;;;66.00;33.53;;;154.10;1612.80;;;;;;5083138;28;20047;-64
2021/01/20 09:44:31;;;;;;;64.18;33.50;;;153.70;1638.40;;;;;;5095346;28;20028;-65
2021/01/20 09:46:57;;;;;;;76.45;38.35;;;128.80;1638.40;;;;;;5094885;28;20050;-64
2021/01/20 09:49:23;;;;;;;66.40;34.70;;;128.90;1664.00;;;;;;5095230;28;20396;-64
2021/01/20 09:51:49;;;;;;;66.75;35.50;;;153.70;1638.40;;;;;;5095238;28;20024;-63
2021/01/20 09:54:14;;;;;;;60.45;33.65;;;153.90;1612.80;;;;;;5093350;28;20099;-64
2021/01/20 09:56:40;;;;;;;67.00;36.08;;;153.80;1612.80;;;;;;5094657;28;20024;-65
2021/01/20 09:59:05;;;;;;;56.92;33.17;;;128.90;1638.40;;;;;;5093873;28;20100;-66
2021/01/20 10:01:31;;;;;;;102.45;50.35;;;128.90;1638.40;;;;;;5094588;28;20019;-65
2021/01/20 10:03:57;;;;;;;60.55;33.25;;;153.80;1638.40;;;;;;5094584;28;20055;-66
2021/01/20 10:06:22;;;;;;;61.45;34.42;;;128.90;1664.00;;;;;;5094273;28;20543;-66
2021/01/20 10:08:48;;;;;;;59.47;33.00;;;128.90;1689.60;;;;;;5093761;28;20051;-64
2021/01/20 10:11:13;;;;;;;60.45;33.55;;;153.60;1664.00;;;;;;5093687;28;20024;-66
2021/01/20 10:13:39;;;;;;;66.53;35.83;;;153.70;1638.40;;;;;;5061954;28;20426;-68
2021/01/20 10:16:05;;;;;;;79.35;42.72;;;128.60;1689.60;;;;;;5093851;28;20020;-65
2021/01/20 10:18:31;;;;;;;76.97;42.28;;;128.80;1689.60;;;;;;5093342;28;20036;-65
2021/01/20 10:20:57;;;;;;;74.60;41.10;;;128.60;1715.20;;;;;;5093837;28;20028;-66
2021/01/20 10:23:24;;;;;;;63.63;35.08;;;128.80;1689.60;;;;;;5094046;28;20437;-65
2021/01/20 10:25:52;;;;;;;62.45;34.78;;;128.20;1740.80;;;;;;5093251;28;20121;-65
2021/01/20 10:28:18;;;;;;;69.15;37.75;;;128.20;1766.40;;;;;;5093369;28;20035;-65
2021/01/20 10:30:43;;;;;;;67.57;37.28;;;128.40;1740.80;;;;;;5093551;28;20028;-67
2021/01/20 10:33:10;;;;;;;67.57;38.13;;;128.40;1740.80;;;;;;5093137;28;20016;-67
2021/01/20 10:35:36;;;;;;;65.80;36.85;;;128.20;1740.80;;;;;;5093190;28;20031;-67
2021/01/20 10:38:01;;;;;;;70.10;36.67;;;128.20;1766.40;;;;;;5093398;28;20040;-64
2021/01/20 10:40:27;;;;;;;67.10;37.28;;;128.10;1766.40;;;;;;5093690;28;20028;-65
2021/01/20 10:42:52;;;;;;;71.72;40.33;;;128.10;1766.40;;;;;;5093079;28;20107;-65
2021/01/20 10:45:18;;;;;;;60.72;35.17;;;128.40;1766.40;;;;;;5093583;28;20092;-65
2021/01/20 10:47:44;;;;;;;65.15;36.90;;;128.20;1740.80;;;;;;5092419;28;20031;-66
2021/01/20 10:50:10;;;;;;;65.93;36.88;;;128.60;1740.80;;;;;;5092625;28;20016;-70
2021/01/20 10:52:36;;;;;;;80.50;40.58;;;128.80;1715.20;;;;;;5092903;28;20016;-65
2021/01/20 10:55:01;;;;;;;96.63;47.20;;;153.80;1664.00;;;;;;5092719;28;20488;-65
2021/01/20 10:57:27;;;;;;;120.38;56.22;;;154.10;1638.40;;;;;;5092509;28;20376;-70
2021/01/20 10:59:54;;;;;;;113.20;53.20;;;154.10;1664.00;;;;;;5093310;28;20522;-65
2021/01/20 11:02:20;;;;;;;102.45;49.83;;;153.90;1638.40;;;;;;5092945;28;20107;-70
2021/01/20 11:04:45;;;;;;;112.65;52.22;;;153.80;1689.60;;;;;;5092436;28;20099;-65
2021/01/20 11:07:12;;;;;;;127.65;57.50;;;153.70;1689.60;;;;;;5092676;28;20098;-65
2021/01/20 11:09:38;;;;;;;115.68;51.60;;;128.90;1715.20;;;;;;5092582;28;20028;-65
2021/01/20 11:12:04;;;;;;;95.47;46.20;;;128.90;1715.20;;;;;;5093324;28;20013;-65
2021/01/20 11:14:29;;;;;;;130.55;58.85;;;128.70;1715.20;;;;;;5093164;28;20024;-65
2021/01/20 11:16:58;;;;;;;120.78;54.00;;;128.80;1740.80;;;;;;5092603;28;20052;-76
2021/01/20 11:19:24;;;;;;;119.10;54.00;;;153.60;1715.20;;;;;;5057988;28;20053;-65
2021/01/20 11:21:49;;;;;;;103.55;48.92;;;153.80;1715.20;;;;;;5092210;28;20071;-69
2021/01/20 11:24:18;;;;;;;124.47;55.92;;;153.80;1689.60;;;;;;5090997;28;20028;-66
2021/01/20 11:26:47;;;;;;;133.85;61.85;;;128.90;1715.20;;;;;;5092222;28;20496;-69
2021/01/20 11:29:13;;;;;;;131.63;57.72;;;153.70;1715.20;;;;;;5090784;28;20028;-66
2021/01/20 11:31:39;;;;;;;137.32;64.55;;;128.70;1740.80;;;;;;5090738;28;20043;-66
2021/01/20 11:34:05;;;;;;;119.00;58.40;;;128.90;1740.80;;;;;;5090991;28;20051;-66
2021/01/20 11:36:30;;;;;;;117.35;57.33;;;153.60;1715.20;;;;;;5090068;28;20039;-71
2021/01/20 11:38:56;;;;;;;116.20;54.90;;;128.90;1715.20;;;;;;5090983;28;20039;-66
2021/01/20 11:41:22;;;;;;;79.13;41.70;;;128.80;1740.80;;;;;;5092068;28;20077;-66
2021/01/20 11:43:48;;;;;;;63.38;37.60;;;128.70;1766.40;;;;;;5091402;28;20097;-69
2021/01/20 11:46:14;;;;;;;58.25;32.45;;;128.60;1766.40;;;;;;5091964;28;20078;-64
2021/01/20 11:48:40;;;;;;;74.13;39.15;;;128.40;1792.00;;;;;;5091155;28;20815;-65
2021/01/20 11:51:05;;;;;;;84.82;44.00;;;128.40;1792.00;;;;;;5091570;28;20103;-70
2021/01/20 11:53:31;;;;;;;71.10;39.40;;;128.60;1792.00;;;;;;5073624;28;20073;-67
2021/01/20 11:55:57;;;;;;;94.32;46.95;;;128.70;1766.40;;;;;;5091143;28;20358;-64
2021/01/20 11:58:22;;;;;;;96.10;48.92;;;128.90;1740.80;;;;;;5091905;28;20038;-64
2021/01/20 12:00:48;;;;;;;106.05;52.58;;;153.80;1715.20;;;;;;5092080;28;20020;-63
2021/01/20 12:03:14;;;;;;;108.78;52.20;;;154.10;1715.20;;;;;;5092378;28;20435;-65
2021/01/20 12:05:39;;;;;;;115.28;59.00;;;179.20;1664.00;;;;;;5092138;28;20053;-73